Hlavní strana
METAR-TAF:

METAR-TAF

Letiště :

Letiště Kyjev-Žuljany

Kyjev, Ukrajina

zeměpisná šířka: 50-24N, zeměpisná délka: 030-34E, výška: 166 m

Aktuální stav počasí

Zpráva byla vytvořena před 41 minutami, v 17:30 UTC
Východoseverovýchodní vítr 4 kt
Teplota 9°C
Vlhkost vzduchu 34%
Tlak 1035 hPa
Viditelnost 10 km a více
Žádná oblačnost pod 1500 m, nevyskytují se cumulonimby.

METAR: UKKK 061730Z 07002MPS CAVOK 09/M06 Q1035 R26/CLRD70 NOSIG

Čas: 21:11 (18:11 UTC)

Předpověď počasí

Zpráva byla vytvořena před 1 hodinou a 8 minutami, v 17:03 UTC
Předpověď platná od 06 v 18 UTC do 07 v 18 UTC
vítr z různých směrů 2 kt
Viditelnost: 6000 m
Polojasno ve výšce 1000 ft
Dočasný
od 06 v 18 UTC do 07 v 06 UTC
Severozápadní vítr 8 kt
Viditelnost: 2000 m
Polojasno ve výšce 500 ft
kouř
Změna
od 07 v 06 UTC do 07 v 08 UTC
Jižní vítr 6 kt s nárazy do 16 kt

TAF: UKKK 061703Z 0618/0718 VRB01MPS 6000 SCT010 TX16/0712Z TN00/0703Z TEMPO 0618/0706 32004MPS 2000 FU SCT005 BECMG 0706/0708 18003G08MPS

Stav a předpovědi počasí z více než 4 000 letišť (zprávy METAR a TAF).

Červené a žluté tečky na mapě představují dostupné meteorologické stanice.

Když kurzor umístíte na tečku, zobrazí se název stanice.

Pak kliknutím zobrazíte stav a předpověď počasí.

Chcete-li změnit mapu, kliknutím na zelené tlačítko se znaménkem +mapu přiblížíte, kliknutím na zelené tlačítko se znaménkem – mapu oddálíte a kliknutím na zelené šipky přejdete na sousední mapy.


METAR-TAF: